Terminal Aerodrome Forecast
Issued by NWS Burlington, VT

Home | Current Version | Previous Version | Text Only | Print | Product List | Glossary On
Versions: 1 2 3 4 5 6 7 8 9 10 11 12 13 14 15 16
865
FTUS41 KBTV 292355 CCA
TAFBTV
TAF COR
KBTV 292355Z 3000/3024 15008KT P6SM BKN025 OVC030
      TEMPO 3002/3004 SCT030 BKN035
     FM300400 16009KT P6SM SCT020 BKN035
     FM301100 17012KT P6SM SCT025 BKN040
     FM301500 18016G23KT P6SM VCSH SCT025 BKN030
     FM301900 18014G20KT 5SM -SHRA BR SCT020 BKN030=

USA.gov is the U.S. government's official web portal to all federal, state and local government web resources and services.